Time;durP1;ratioP1;P1;durP2;ratioP2;P2;SDS_P1;SDS_P2;PMS_P1;PMS_P2;Temp;Humidity;BMP_temperature;BMP_pressure;BME280_temperature;BME280_humidity;BME280_pressure;Samples;Min_cycle;Max_cycle;Signal;HPM_P1;HPM_P2
2023/06/10 00:01:47;;;;;;;8.60;6.90;;;;;;;22.90;43.00;97052.22;5091566;28;20450;-71
2023/06/10 00:04:19;;;;;;;8.57;7.70;;;;;;;22.83;43.44;97055.03;5090786;28;20178;-71
2023/06/10 00:06:44;;;;;;;8.77;7.97;;;;;;;22.82;43.21;97061.41;5072255;28;20421;-71
2023/06/10 00:09:10;;;;;;;7.90;7.00;;;;;;;22.75;43.33;97055.38;5094085;28;20535;-71
2023/06/10 00:11:36;;;;;;;8.70;7.73;;;;;;;22.79;43.21;97051.22;5074210;28;20217;-71
2023/06/10 00:14:02;;;;;;;8.80;7.40;;;;;;;22.78;43.25;97052.25;5078785;28;20201;-70
2023/06/10 00:16:28;;;;;;;11.30;7.90;;;;;;;22.75;43.39;97052.72;5099468;28;21010;-70
2023/06/10 00:18:55;;;;;;;8.43;7.63;;;;;;;22.77;43.32;97053.31;5098705;28;20213;-70
2023/06/10 00:21:21;;;;;;;9.63;8.10;;;;;;;22.74;43.56;97053.75;5090786;28;20228;-70
2023/06/10 00:23:47;;;;;;;9.07;7.40;;;;;;;22.74;43.33;97061.78;5069444;28;20431;-70
2023/06/10 00:26:12;;;;;;;8.87;7.97;;;;;;;22.65;43.60;97057.84;5073631;28;20819;-71
2023/06/10 00:28:38;;;;;;;8.63;7.83;;;;;;;22.62;43.80;97053.75;5098447;28;20209;-70
2023/06/10 00:31:04;;;;;;;8.00;7.30;;;;;;;22.56;43.74;97052.03;5092560;28;20288;-70
2023/06/10 00:33:29;;;;;;;8.60;7.80;;;;;;;22.44;43.99;97051.22;5090117;28;20192;-70
2023/06/10 00:35:55;;;;;;;7.97;7.17;;;;;;;22.44;44.00;97059.25;5098248;28;20808;-71
2023/06/10 00:38:20;;;;;;;8.43;7.10;;;;;;;22.40;43.98;97057.00;5090048;28;20177;-70
2023/06/10 00:40:46;;;;;;;8.50;7.70;;;;;;;22.41;44.24;97052.50;5098581;28;20762;-71
2023/06/10 00:43:11;;;;;;;8.13;7.17;;;;;;;22.38;44.39;97058.28;5089203;28;20520;-71
2023/06/10 00:45:37;;;;;;;13.90;7.60;;;;;;;22.36;44.44;97055.03;5090062;28;20215;-71
2023/06/10 00:48:03;;;;;;;9.10;8.20;;;;;;;22.30;44.43;97054.09;5089228;28;20178;-70
2023/06/10 00:50:29;;;;;;;9.43;7.47;;;;;;;22.25;44.68;97049.44;5089600;28;20280;-71
2023/06/10 00:52:55;;;;;;;10.53;7.57;;;;;;;22.32;44.65;97054.69;5070051;28;20858;-71
2023/06/10 00:55:20;;;;;;;9.50;7.23;;;;;;;22.31;44.60;97052.22;5055009;28;20981;-71
2023/06/10 00:57:48;;;;;;;7.93;7.23;;;;;;;22.28;44.60;97060.72;5089856;28;20591;-72
2023/06/10 01:00:15;;;;;;;7.90;7.10;;;;;;;22.24;44.66;97050.50;5072869;28;20287;-70
2023/06/10 01:02:41;;;;;;;8.40;7.50;;;;;;;22.20;44.79;97057.31;5091024;28;20459;-70
2023/06/10 01:05:07;;;;;;;8.53;7.13;;;;;;;22.22;44.93;97055.25;5087616;28;20499;-70
2023/06/10 01:07:53;;;;;;;8.60;7.00;;;;;;;22.19;45.05;97049.56;5070949;28;20428;-70
2023/06/10 01:10:24;;;;;;;8.47;7.57;;;;;;;22.16;45.03;97050.84;5078930;28;20428;-72
2023/06/10 01:12:54;;;;;;;8.30;7.50;;;;;;;22.19;45.06;97046.91;5097396;28;20426;-71
2023/06/10 01:15:19;;;;;;;9.67;7.67;;;;;;;22.14;45.09;97052.09;5066402;28;20843;-71
2023/06/10 01:17:59;;;;;;;8.47;7.77;;;;;;;22.11;45.27;97048.03;5071889;28;20494;-71
2023/06/10 01:20:29;;;;;;;8.37;7.60;;;;;;;22.06;45.31;97050.56;5070498;28;20229;-71
2023/06/10 01:22:55;;;;;;;8.87;7.40;;;;;;;22.02;45.49;97050.22;5087072;28;20527;-70
2023/06/10 01:25:32;;;;;;;8.63;7.73;;;;;;;21.98;45.52;97042.91;5090992;28;21174;-67
2023/06/10 01:28:14;;;;;;;8.80;7.90;;;;;;;21.90;45.68;97038.72;5090735;28;20420;-70
2023/06/10 01:31:07;;;;;;;8.53;7.47;;;;;;;21.90;45.50;97038.72;5072454;28;21020;-70
2023/06/10 01:33:35;;;;;;;7.93;7.20;;;;;;;21.86;45.95;97038.38;5084779;28;20431;-70
2023/06/10 01:36:02;;;;;;;10.23;7.80;;;;;;;21.86;45.67;97035.72;5091243;28;20459;-70
2023/06/10 01:38:31;;;;;;;7.90;7.20;;;;;;;21.84;45.95;97037.00;5069804;28;20431;-71
2023/06/10 01:40:57;;;;;;;8.57;7.77;;;;;;;21.81;45.66;97042.78;5067750;28;20436;-70
2023/06/10 01:43:23;;;;;;;7.90;7.20;;;;;;;21.78;45.72;97038.72;5088377;28;20435;-70
2023/06/10 01:45:48;;;;;;;10.87;7.90;;;;;;;21.79;46.10;97038.47;5089251;28;20431;-68
2023/06/10 01:48:13;;;;;;;11.13;7.40;;;;;;;21.79;46.29;97045.69;5089385;28;20186;-70
2023/06/10 01:50:39;;;;;;;8.53;7.73;;;;;;;21.79;46.08;97045.69;5089085;28;20205;-70
2023/06/10 01:53:07;;;;;;;9.30;8.40;;;;;;;21.75;46.05;97049.84;5055924;28;20186;-71
2023/06/10 01:55:33;;;;;;;8.73;7.83;;;;;;;21.62;46.60;97051.66;5091611;28;20211;-71
2023/06/10 01:57:58;;;;;;;8.67;7.77;;;;;;;21.63;46.35;97053.28;5091140;28;20817;-70
2023/06/10 02:00:24;;;;;;;9.00;8.10;;;;;;;21.60;46.32;97045.72;5094428;28;20211;-70
2023/06/10 02:02:49;;;;;;;10.17;7.77;;;;;;;21.60;46.68;97043.06;5091477;28;20196;-70
2023/06/10 02:05:15;;;;;;;10.73;8.20;;;;;;;21.65;46.52;97055.72;5091285;28;20226;-70
2023/06/10 02:07:40;;;;;;;10.13;8.03;;;;;;;21.59;46.63;97049.44;5093084;28;20185;-70
2023/06/10 02:10:06;;;;;;;9.00;8.10;;;;;;;21.57;46.91;97053.34;5071812;28;20319;-70
2023/06/10 02:12:32;;;;;;;8.60;7.80;;;;;;;21.52;46.59;97056.69;5076504;28;20189;-68
2023/06/10 02:14:57;;;;;;;8.87;8.00;;;;;;;21.46;47.08;97055.75;5086415;28;20471;-69
2023/06/10 02:17:23;;;;;;;10.73;9.63;;;;;;;21.32;47.35;97056.97;5087840;28;20272;-69
2023/06/10 02:19:52;;;;;;;8.70;7.90;;;;;;;21.31;47.39;97053.47;5088373;28;20224;-70
2023/06/10 02:22:21;;;;;;;9.20;8.10;;;;;;;21.32;47.54;97057.75;5070824;28;20185;-70
2023/06/10 02:24:47;;;;;;;9.10;8.30;;;;;;;21.35;47.55;97061.00;5070173;28;20943;-71
2023/06/10 02:27:13;;;;;;;8.83;8.03;;;;;;;21.33;47.50;97064.72;5099635;28;20451;-71
2023/06/10 02:29:38;;;;;;;8.73;7.93;;;;;;;21.35;47.40;97067.19;5095601;28;20189;-71
2023/06/10 02:32:04;;;;;;;8.67;7.87;;;;;;;21.38;47.49;97071.25;5095608;28;20583;-71
2023/06/10 02:34:29;;;;;;;9.80;7.90;;;;;;;21.31;47.15;97061.47;5100412;28;20292;-71
2023/06/10 02:36:55;;;;;;;9.30;8.20;;;;;;;21.29;47.82;97060.91;5092224;28;20233;-71
2023/06/10 02:39:21;;;;;;;9.57;8.60;;;;;;;21.28;47.79;97059.25;5092565;28;20181;-71
2023/06/10 02:41:47;;;;;;;9.70;8.30;;;;;;;21.26;47.32;97064.00;5092435;28;20245;-70
2023/06/10 02:44:12;;;;;;;8.40;7.60;;;;;;;21.28;47.72;97061.94;5094782;28;20461;-70
2023/06/10 02:46:37;;;;;;;9.13;8.33;;;;;;;21.28;47.34;97071.75;5098430;28;20267;-69
2023/06/10 02:49:03;;;;;;;8.40;7.60;;;;;;;21.23;47.54;97075.09;5091951;28;20706;-69
2023/06/10 02:51:28;;;;;;;9.07;8.03;;;;;;;21.23;47.56;97077.78;5093224;28;20624;-70
2023/06/10 02:53:54;;;;;;;11.40;8.20;;;;;;;21.16;47.67;97069.06;5091651;28;20186;-70
2023/06/10 02:56:20;;;;;;;9.07;8.17;;;;;;;21.06;47.72;97076.72;5091999;28;20210;-70
2023/06/10 02:58:45;;;;;;;9.97;7.60;;;;;;;21.07;47.88;97081.84;5082339;28;20378;-70
2023/06/10 03:01:12;;;;;;;8.17;7.33;;;;;;;20.99;48.08;97074.97;5095483;28;20281;-70
2023/06/10 03:03:40;;;;;;;9.27;8.00;;;;;;;20.96;48.17;97080.75;5085747;28;20272;-70
2023/06/10 03:06:06;;;;;;;8.30;7.60;;;;;;;20.98;48.02;97081.34;5100938;28;20908;-71
2023/06/10 03:08:31;;;;;;;8.40;7.60;;;;;;;20.92;48.43;97084.88;5078810;28;20424;-71
2023/06/10 03:10:57;;;;;;;12.47;8.00;;;;;;;20.90;48.32;97078.97;5091566;28;20251;-70
2023/06/10 03:13:23;;;;;;;9.63;8.33;;;;;;;20.90;48.33;97080.81;5056796;28;20201;-70
2023/06/10 03:15:49;;;;;;;8.30;7.50;;;;;;;20.92;48.30;97082.22;5091368;28;20209;-71
2023/06/10 03:18:14;;;;;;;11.60;7.80;;;;;;;20.85;48.42;97084.13;5091709;28;20469;-70
2023/06/10 03:20:40;;;;;;;8.67;7.97;;;;;;;20.87;48.65;97085.53;5073794;28;20619;-70
2023/06/10 03:23:09;;;;;;;8.47;7.67;;;;;;;20.87;48.35;97082.06;5092110;28;20639;-69
2023/06/10 03:25:34;;;;;;;8.67;7.83;;;;;;;20.83;48.44;97084.38;5092042;28;20736;-72
2023/06/10 03:28:00;;;;;;;10.63;9.27;;;;;;;20.78;48.91;97096.72;5088778;28;20434;-70
2023/06/10 03:30:27;;;;;;;12.43;9.50;;;;;;;20.75;48.73;97099.81;5088066;28;20627;-71
2023/06/10 03:32:52;;;;;;;10.63;8.30;;;;;;;20.81;48.73;97106.91;5083142;28;20196;-72
2023/06/10 03:35:18;;;;;;;12.83;8.50;;;;;;;20.84;48.30;97109.13;5089948;28;20546;-71
2023/06/10 03:37:43;;;;;;;9.90;8.10;;;;;;;20.82;48.69;97106.72;5090643;28;20189;-72
2023/06/10 03:40:10;;;;;;;9.57;7.93;;;;;;;20.77;48.71;97109.22;5089847;28;20185;-69
2023/06/10 03:42:35;;;;;;;9.00;8.20;;;;;;;20.72;49.25;97107.19;5072108;28;20745;-70
2023/06/10 03:45:02;;;;;;;8.57;7.67;;;;;;;20.77;49.29;97111.06;5089561;28;20510;-69
2023/06/10 03:47:34;;;;;;;9.90;8.30;;;;;;;20.71;48.82;97110.88;5079849;28;20174;-71
2023/06/10 03:50:00;;;;;;;9.73;7.80;;;;;;;20.74;49.40;97122.13;5089933;28;20428;-71
2023/06/10 03:52:25;;;;;;;11.23;8.50;;;;;;;20.77;48.96;97116.41;5090313;28;20940;-71
2023/06/10 03:54:50;;;;;;;8.83;7.93;;;;;;;20.75;49.16;97121.13;5089789;28;20895;-71
2023/06/10 03:57:16;;;;;;;10.00;8.60;;;;;;;20.68;49.26;97124.63;5090075;28;20268;-71
2023/06/10 03:59:41;;;;;;;8.67;7.77;;;;;;;20.69;49.59;97115.59;5072412;28;20273;-71
2023/06/10 04:02:08;;;;;;;8.50;7.70;;;;;;;20.65;49.75;97127.75;5095073;28;20292;-71
2023/06/10 04:04:34;;;;;;;8.93;8.03;;;;;;;20.69;49.51;97120.13;5090840;28;20224;-70
2023/06/10 04:06:59;;;;;;;8.10;7.40;;;;;;;20.70;49.63;97119.88;5090810;28;20810;-69
2023/06/10 04:09:25;;;;;;;10.73;8.30;;;;;;;20.72;49.57;97123.16;5099317;28;20444;-69
2023/06/10 04:11:51;;;;;;;8.80;7.90;;;;;;;20.65;49.59;97127.75;5091140;28;20213;-70
2023/06/10 04:14:16;;;;;;;9.80;8.73;;;;;;;20.70;49.86;97119.88;5089365;28;20177;-70
2023/06/10 04:16:42;;;;;;;14.70;7.50;;;;;;;20.73;49.70;97118.63;5099074;28;20229;-71
2023/06/10 04:19:08;;;;;;;8.90;8.03;;;;;;;20.79;49.61;97124.97;5072904;28;20185;-71
2023/06/10 04:21:33;;;;;;;9.03;7.33;;;;;;;20.83;49.68;97116.31;5075810;28;20436;-71
2023/06/10 04:23:59;;;;;;;9.27;8.37;;;;;;;20.89;49.59;97119.97;5092366;28;20269;-71
2023/06/10 04:26:25;;;;;;;10.03;8.27;;;;;;;20.92;49.44;97124.03;5093584;28;20178;-70
2023/06/10 04:28:51;;;;;;;9.73;8.73;;;;;;;20.90;49.76;97124.25;5092874;28;20181;-71
2023/06/10 04:31:16;;;;;;;9.03;8.23;;;;;;;20.97;50.03;97127.66;5099739;28;20842;-71
2023/06/10 04:33:42;;;;;;;10.00;9.00;;;;;;;20.95;49.85;97124.38;5038805;28;20185;-70
2023/06/10 04:36:07;;;;;;;10.83;8.30;;;;;;;20.98;49.84;97125.81;5053885;28;20288;-70
2023/06/10 04:38:33;;;;;;;8.40;7.60;;;;;;;21.02;49.98;97126.97;5068768;28;20185;-70
2023/06/10 04:40:59;;;;;;;8.87;8.17;;;;;;;21.05;50.12;97136.38;5084962;28;20665;-71
2023/06/10 04:43:24;;;;;;;9.27;8.47;;;;;;;21.07;50.12;97134.31;5095206;28;20268;-69
2023/06/10 04:45:49;;;;;;;8.87;8.07;;;;;;;21.10;50.13;97134.69;5094033;28;20180;-70
2023/06/10 04:48:15;;;;;;;9.80;8.77;;;;;;;21.13;50.48;97133.44;5079784;28;20180;-71
2023/06/10 04:50:40;;;;;;;9.83;8.73;;;;;;;21.17;50.00;97122.09;5091385;28;20229;-70
2023/06/10 04:53:06;;;;;;;9.50;8.60;;;;;;;21.19;50.09;97132.53;5086008;28;20185;-70
2023/06/10 04:55:33;;;;;;;10.73;8.63;;;;;;;21.22;50.38;97137.41;5089108;28;20213;-71
2023/06/10 04:57:58;;;;;;;10.30;8.63;;;;;;;21.28;50.34;97139.22;5079600;28;20204;-69
2023/06/10 05:00:24;;;;;;;9.27;8.37;;;;;;;21.31;50.31;97141.41;5078558;28;20443;-71
2023/06/10 05:02:49;;;;;;;8.40;7.70;;;;;;;21.40;50.09;97149.13;5087369;28;20710;-72
2023/06/10 05:05:16;;;;;;;9.20;8.23;;;;;;;21.47;50.03;97141.84;5086207;28;20566;-71
2023/06/10 05:07:42;;;;;;;9.53;8.63;;;;;;;21.56;50.02;97137.84;5067492;28;20182;-72
2023/06/10 05:10:07;;;;;;;8.07;7.27;;;;;;;21.65;49.86;97137.56;5083452;28;20455;-71
2023/06/10 05:12:33;;;;;;;8.70;7.90;;;;;;;21.71;49.59;97134.00;5088727;28;20186;-71
2023/06/10 05:14:58;;;;;;;8.10;7.20;;;;;;;21.79;49.58;97141.69;5085205;28;20320;-70
2023/06/10 05:17:25;;;;;;;7.57;6.97;;;;;;;21.73;48.96;97147.91;5069017;28;20268;-71
2023/06/10 05:19:50;;;;;;;8.00;7.30;;;;;;;21.87;49.09;97153.88;5088529;28;20880;-72
2023/06/10 05:22:17;;;;;;;9.03;7.70;;;;;;;22.00;48.55;97143.03;5089766;28;20452;-71
2023/06/10 05:24:43;;;;;;;7.10;6.40;;;;;;;22.12;48.58;97148.41;5094740;28;20606;-71
2023/06/10 05:27:09;;;;;;;8.03;7.30;;;;;;;22.20;47.66;97148.06;5087629;28;21012;-72
2023/06/10 05:29:35;;;;;;;6.90;6.30;;;;;;;22.31;47.47;97145.66;5088570;28;20416;-72
2023/06/10 05:32:02;;;;;;;7.40;6.70;;;;;;;22.41;47.73;97148.63;5086541;28;20714;-70
2023/06/10 05:34:29;;;;;;;6.50;5.97;;;;;;;22.57;47.64;97146.28;5086571;28;20714;-70
2023/06/10 05:36:54;;;;;;;7.67;6.20;;;;;;;22.73;47.36;97150.16;5091138;28;20970;-72
2023/06/10 05:39:20;;;;;;;7.20;5.93;;;;;;;22.81;46.74;97158.63;5088184;28;20451;-70
2023/06/10 05:41:46;;;;;;;9.83;6.63;;;;;;;22.87;46.54;97154.22;5086017;28;20213;-69
2023/06/10 05:44:11;;;;;;;9.83;6.40;;;;;;;22.98;46.54;97152.56;5088720;28;20186;-70
2023/06/10 05:46:36;;;;;;;7.00;6.30;;;;;;;23.10;46.18;97155.25;5101323;28;20260;-70
2023/06/10 05:49:02;;;;;;;12.73;6.53;;;;;;;23.24;46.46;97154.00;5070206;28;20193;-70
2023/06/10 05:51:28;;;;;;;6.70;6.20;;;;;;;23.39;45.98;97153.47;5087935;28;20619;-69
2023/06/10 05:53:54;;;;;;;6.90;6.30;;;;;;;23.54;45.89;97157.53;5088174;28;20224;-70
2023/06/10 05:56:21;;;;;;;6.73;6.03;;;;;;;23.70;45.66;97164.78;5087564;28;20217;-71
2023/06/10 05:58:46;;;;;;;6.07;5.43;;;;;;;23.85;45.38;97158.91;5074830;28;20424;-71
2023/06/10 06:01:12;;;;;;;6.87;6.17;;;;;;;23.96;45.06;97162.63;5092325;28;20577;-71
2023/06/10 06:03:37;;;;;;;6.67;5.90;;;;;;;24.05;44.39;97161.19;5092866;28;20196;-71
2023/06/10 06:06:03;;;;;;;6.43;5.87;;;;;;;24.18;44.67;97148.56;5099186;28;20177;-71
2023/06/10 06:08:29;;;;;;;6.23;5.77;;;;;;;24.32;44.26;97157.88;5078977;28;20189;-70
2023/06/10 06:10:54;;;;;;;5.80;5.30;;;;;;;24.47;44.14;97156.50;5088499;28;20212;-73
2023/06/10 06:13:20;;;;;;;7.53;5.30;;;;;;;24.61;43.87;97157.81;5054741;28;20448;-71
2023/06/10 06:15:45;;;;;;;8.40;5.60;;;;;;;24.69;42.59;97160.13;5086417;28;20216;-71
2023/06/10 06:18:11;;;;;;;15.47;5.87;;;;;;;24.79;43.27;97159.47;5087039;28;20277;-69
2023/06/10 06:20:36;;;;;;;8.13;5.93;;;;;;;24.92;42.86;97163.69;5079393;28;20681;-68
2023/06/10 06:23:01;;;;;;;8.87;5.30;;;;;;;25.06;42.94;97157.97;5088848;28;20268;-70
2023/06/10 06:25:27;;;;;;;18.27;6.20;;;;;;;25.21;42.42;97157.34;5088902;28;20173;-68
2023/06/10 06:27:52;;;;;;;8.73;5.83;;;;;;;25.33;42.47;97158.03;5089200;28;20239;-68
2023/06/10 06:30:18;;;;;;;8.80;5.60;;;;;;;25.47;41.97;97146.97;5090682;28;20683;-72
2023/06/10 06:32:43;;;;;;;6.43;5.47;;;;;;;25.61;42.21;97158.97;5088537;28;20227;-69
2023/06/10 06:35:09;;;;;;;6.90;6.27;;;;;;;25.72;41.61;97157.19;5072302;28;20181;-69
2023/06/10 06:37:35;;;;;;;11.73;5.57;;;;;;;25.82;41.13;97162.69;5070236;28;20607;-71
2023/06/10 06:40:00;;;;;;;5.87;5.30;;;;;;;25.90;40.87;97161.41;5092152;28;20185;-71
2023/06/10 06:42:26;;;;;;;5.60;5.17;;;;;;;25.92;41.01;97157.41;5087663;28;20538;-69
2023/06/10 06:44:51;;;;;;;6.40;5.80;;;;;;;26.02;41.04;97154.00;5093079;28;20221;-68
2023/06/10 06:47:19;;;;;;;6.30;5.70;;;;;;;26.13;41.11;97154.94;5095260;28;20272;-68
2023/06/10 06:49:48;;;;;;;5.83;5.23;;;;;;;26.27;40.87;97159.91;5088276;28;20182;-69
2023/06/10 06:52:14;;;;;;;6.30;5.27;;;;;;;26.40;40.66;97167.53;5096268;28;20985;-68
2023/06/10 06:54:39;;;;;;;8.13;5.30;;;;;;;26.46;39.98;97166.53;5088418;28;20465;-71
2023/06/10 06:57:05;;;;;;;5.40;4.90;;;;;;;26.56;40.01;97168.47;5089339;28;20884;-70
2023/06/10 06:59:31;;;;;;;9.40;5.60;;;;;;;26.66;39.85;97167.75;5089501;28;20600;-67
2023/06/10 07:01:56;;;;;;;7.90;4.87;;;;;;;26.78;39.96;97171.09;5097517;28;20232;-69
2023/06/10 07:04:22;;;;;;;5.20;4.80;;;;;;;26.85;39.23;97176.25;5088956;28;20190;-71
2023/06/10 07:06:48;;;;;;;5.20;4.80;;;;;;;26.83;38.76;97175.69;5094499;28;20281;-69
2023/06/10 07:09:13;;;;;;;8.80;5.07;;;;;;;26.90;38.75;97172.78;5087061;28;20650;-69
2023/06/10 07:11:39;;;;;;;5.63;5.03;;;;;;;27.01;38.58;97179.03;5086765;28;20519;-69
2023/06/10 07:14:04;;;;;;;6.00;5.50;;;;;;;27.01;38.45;97185.22;5089916;28;20178;-70
2023/06/10 07:16:30;;;;;;;5.57;5.10;;;;;;;27.06;38.24;97181.75;5092314;28;20757;-68
2023/06/10 07:18:55;;;;;;;5.87;5.37;;;;;;;27.13;38.59;97183.13;5091208;28;20637;-68
2023/06/10 07:21:22;;;;;;;5.97;5.13;;;;;;;27.22;38.58;97177.28;5096741;28;20202;-69
2023/06/10 07:23:47;;;;;;;4.77;4.43;;;;;;;27.28;38.31;97181.59;5091546;28;20788;-69
2023/06/10 07:26:13;;;;;;;5.67;5.13;;;;;;;27.31;38.28;97166.81;5091586;28;20515;-69
2023/06/10 07:28:41;;;;;;;4.97;4.57;;;;;;;27.47;38.00;97167.75;5091576;28;20182;-69
2023/06/10 07:31:08;;;;;;;5.60;5.10;;;;;;;27.59;38.26;97176.41;5094870;28;20270;-69
2023/06/10 07:33:33;;;;;;;4.77;4.37;;;;;;;27.71;37.76;97166.22;5095238;28;20938;-70
2023/06/10 07:35:59;;;;;;;9.53;4.30;;;;;;;27.74;37.45;97167.56;5093920;28;20452;-70
2023/06/10 07:38:25;;;;;;;6.47;4.63;;;;;;;27.66;37.16;97174.28;5089052;28;20193;-69
2023/06/10 07:40:51;;;;;;;4.93;4.53;;;;;;;27.74;37.19;97165.66;5095770;28;20208;-68
2023/06/10 07:43:16;;;;;;;4.97;4.57;;;;;;;27.77;37.26;97168.91;5091726;28;20481;-69
2023/06/10 07:45:42;;;;;;;5.43;4.73;;;;;;;27.86;37.24;97168.13;5090647;28;20196;-70
2023/06/10 07:48:08;;;;;;;4.83;4.43;;;;;;;27.80;37.45;97163.81;5090320;28;20186;-69
2023/06/10 07:50:33;;;;;;;4.30;3.90;;;;;;;27.95;37.29;97173.00;5073244;28;20209;-69
2023/06/10 07:52:59;;;;;;;5.60;5.10;;;;;;;28.03;36.88;97162.50;5090094;28;20182;-70
2023/06/10 07:55:25;;;;;;;5.67;5.17;;;;;;;28.08;36.87;97175.19;5084958;28;20240;-70
2023/06/10 07:57:52;;;;;;;5.37;4.87;;;;;;;28.18;36.71;97174.44;5086952;28;20198;-69
2023/06/10 08:00:17;;;;;;;5.40;4.90;;;;;;;28.20;36.15;97166.88;5097115;28;20477;-68
2023/06/10 08:02:43;;;;;;;5.40;5.00;;;;;;;28.33;36.35;97169.06;5098414;28;20420;-69
2023/06/10 08:05:08;;;;;;;5.43;4.93;;;;;;;28.41;36.60;97166.91;5089325;28;20188;-69
2023/06/10 08:07:34;;;;;;;5.50;5.03;;;;;;;28.53;36.12;97164.75;5082745;28;20192;-69
2023/06/10 08:10:00;;;;;;;6.77;5.27;;;;;;;28.66;36.45;97168.78;5088526;28;20327;-69
2023/06/10 08:12:25;;;;;;;5.23;4.83;;;;;;;28.78;35.52;97166.66;5090146;28;20201;-69
2023/06/10 08:14:51;;;;;;;5.33;4.87;;;;;;;28.82;35.49;97166.91;5070595;28;20467;-69
2023/06/10 08:17:16;;;;;;;5.70;5.10;;;;;;;28.96;35.96;97169.84;5089135;28;20202;-68
2023/06/10 08:19:42;;;;;;;7.40;5.13;;;;;;;29.10;35.21;97162.00;5071740;28;20592;-69
2023/06/10 08:22:07;;;;;;;5.97;5.37;;;;;;;29.26;35.43;97160.84;5086901;28;20201;-70
2023/06/10 08:24:33;;;;;;;5.60;5.20;;;;;;;29.42;35.03;97161.63;5092713;28;20201;-69
2023/06/10 08:26:58;;;;;;;6.13;5.60;;;;;;;29.50;34.67;97162.94;5090320;28;20185;-69
2023/06/10 08:29:24;;;;;;;5.40;4.70;;;;;;;29.57;34.39;97166.19;5087933;28;20181;-69
2023/06/10 08:31:49;;;;;;;5.87;5.30;;;;;;;29.75;34.52;97166.63;5090181;28;20217;-70
2023/06/10 08:34:15;;;;;;;5.40;5.00;;;;;;;29.88;34.31;97159.81;5077469;28;20236;-69
2023/06/10 08:36:40;;;;;;;5.93;5.30;;;;;;;29.89;33.30;97162.22;5071352;28;20194;-70
2023/06/10 08:39:07;;;;;;;8.73;5.20;;;;;;;29.96;34.30;97161.16;5054508;28;20252;-69
2023/06/10 08:41:37;;;;;;;6.47;5.93;;;;;;;30.08;33.45;97156.22;5088507;28;20310;-68
2023/06/10 08:44:22;;;;;;;5.80;5.27;;;;;;;30.16;33.41;97161.00;5053933;28;20833;-69
2023/06/10 08:46:48;;;;;;;6.57;5.90;;;;;;;30.21;33.39;97167.47;5037898;28;20420;-70
2023/06/10 08:49:22;;;;;;;6.63;5.33;;;;;;;30.26;33.66;97162.00;5039340;28;20420;-69
2023/06/10 08:51:55;;;;;;;5.90;5.40;;;;;;;30.30;33.24;97165.78;5052270;28;20964;-69
2023/06/10 08:54:22;;;;;;;5.30;4.80;;;;;;;30.34;33.36;97164.13;5073095;28;20959;-69
2023/06/10 08:56:50;;;;;;;5.70;5.10;;;;;;;30.39;32.77;97157.88;5071247;28;20550;-69
2023/06/10 08:59:16;;;;;;;5.33;4.87;;;;;;;30.53;33.07;97153.44;5084891;28;20422;-69
2023/06/10 09:01:43;;;;;;;5.63;5.10;;;;;;;30.66;33.01;97154.69;5070001;28;20436;-70
2023/06/10 09:04:08;;;;;;;6.27;4.83;;;;;;;30.70;32.52;97147.63;5088825;28;20550;-70
2023/06/10 09:06:36;;;;;;;5.20;4.70;;;;;;;30.69;32.70;97151.44;5093545;28;20426;-71
2023/06/10 09:09:02;;;;;;;4.83;4.40;;;;;;;30.83;31.73;97150.75;5089124;28;20602;-70
2023/06/10 09:11:28;;;;;;;5.13;4.73;;;;;;;30.92;31.64;97149.84;5088702;28;20443;-69
2023/06/10 09:13:53;;;;;;;5.30;4.90;;;;;;;31.08;31.85;97147.78;5083713;28;20439;-70
2023/06/10 09:16:19;;;;;;;4.80;4.50;;;;;;;31.19;32.06;97147.69;5087743;28;20206;-69
2023/06/10 09:18:44;;;;;;;5.47;4.67;;;;;;;31.19;31.99;97145.00;5087254;28;20234;-71
2023/06/10 09:21:10;;;;;;;6.50;4.70;;;;;;;31.34;31.99;97146.72;5084706;28;20198;-71
2023/06/10 09:23:37;;;;;;;4.90;4.40;;;;;;;31.46;31.67;97157.94;5087114;28;20236;-70
2023/06/10 09:26:04;;;;;;;4.43;4.03;;;;;;;31.60;31.28;97155.34;5069147;28;20641;-70
2023/06/10 09:28:30;;;;;;;4.10;3.77;;;;;;;31.69;30.78;97148.19;5080466;28;20507;-69
2023/06/10 09:31:05;;;;;;;5.10;4.07;;;;;;;31.75;30.38;97154.34;5087855;28;20443;-72
2023/06/10 09:33:31;;;;;;;4.70;4.30;;;;;;;31.89;30.28;97140.06;5085262;28;20265;-71
2023/06/10 09:36:00;;;;;;;4.60;3.47;;;;;;;32.02;29.66;97137.41;5061563;28;20805;-69
2023/06/10 09:38:29;;;;;;;5.60;4.33;;;;;;;32.18;30.40;97145.31;5086089;28;20694;-70
2023/06/10 09:40:55;;;;;;;4.47;4.07;;;;;;;32.13;29.33;97151.63;5088396;28;20472;-69
2023/06/10 09:43:21;;;;;;;4.23;3.93;;;;;;;31.94;29.08;97146.22;5086743;28;20980;-71
2023/06/10 09:45:55;;;;;;;5.10;4.23;;;;;;;31.97;29.65;97139.41;5086508;28;20213;-72
2023/06/10 09:48:22;;;;;;;4.40;4.10;;;;;;;32.08;29.86;97140.06;5086046;28;20258;-72
2023/06/10 09:50:48;;;;;;;4.43;4.10;;;;;;;32.09;29.43;97141.69;5087705;28;20443;-72
2023/06/10 09:53:14;;;;;;;4.90;3.67;;;;;;;31.93;29.57;97138.41;5088382;28;20424;-72
2023/06/10 09:55:41;;;;;;;3.90;3.60;;;;;;;32.00;29.57;97142.34;5092209;28;20473;-72
2023/06/10 09:58:07;;;;;;;5.40;3.90;;;;;;;32.15;29.53;97135.06;5087264;28;20431;-72
2023/06/10 10:00:33;;;;;;;4.57;4.17;;;;;;;32.21;29.50;97133.91;5094715;28;20947;-72
2023/06/10 10:02:59;;;;;;;4.07;3.67;;;;;;;32.23;28.75;97131.69;5076968;28;20201;-71
2023/06/10 10:05:25;;;;;;;4.03;3.50;;;;;;;32.37;28.61;97141.81;5066719;28;20419;-71
2023/06/10 10:07:51;;;;;;;4.00;3.70;;;;;;;32.49;29.07;97136.75;5085295;28;20197;-72
2023/06/10 10:10:18;;;;;;;4.53;4.10;;;;;;;32.63;28.83;97132.16;5083887;28;20186;-72
2023/06/10 10:12:46;;;;;;;5.10;3.90;;;;;;;32.69;28.49;97126.63;5079420;28;20542;-72
2023/06/10 10:15:12;;;;;;;3.90;3.60;;;;;;;32.79;28.91;97129.16;5066101;28;20423;-72
2023/06/10 10:17:50;;;;;;;3.90;3.60;;;;;;;32.90;28.55;97117.03;5088857;28;20474;-73
2023/06/10 10:20:18;;;;;;;5.50;3.77;;;;;;;33.01;28.34;97123.06;5086811;28;20189;-72
2023/06/10 10:22:46;;;;;;;4.23;3.93;;;;;;;33.17;27.88;97120.06;5069409;28;20935;-72
2023/06/10 10:25:14;;;;;;;5.87;3.80;;;;;;;33.32;28.25;97124.38;5073848;28;20427;-72
2023/06/10 10:28:02;;;;;;;5.10;3.90;;;;;;;33.37;28.01;97118.88;5054251;28;20408;-72
2023/06/10 10:30:30;;;;;;;4.37;3.97;;;;;;;33.13;27.58;97124.47;5099999;28;20422;-72
2023/06/10 10:33:04;;;;;;;4.93;4.53;;;;;;;32.98;27.99;97123.66;5090551;28;20823;-71
2023/06/10 10:35:31;;;;;;;4.77;4.03;;;;;;;32.86;28.23;97126.06;5091847;28;21156;-72
2023/06/10 10:37:56;;;;;;;4.63;4.20;;;;;;;32.61;28.29;97125.41;5068916;28;20429;-72
2023/06/10 10:40:22;;;;;;;5.33;4.43;;;;;;;32.65;28.01;97114.75;5068743;28;20519;-71
2023/06/10 10:42:51;;;;;;;4.93;4.53;;;;;;;32.43;28.21;97113.50;5053210;28;20200;-71
2023/06/10 10:45:17;;;;;;;3.70;3.40;;;;;;;32.25;28.48;97118.69;5087060;28;20522;-70
2023/06/10 10:47:45;;;;;;;4.40;4.00;;;;;;;32.00;28.56;97117.16;5071023;28;20538;-72
2023/06/10 10:50:15;;;;;;;4.50;4.10;;;;;;;31.69;28.66;97115.69;5087372;28;20716;-71
2023/06/10 10:52:52;;;;;;;4.43;4.13;;;;;;;31.44;28.92;97122.25;5093221;28;20533;-72
2023/06/10 10:55:17;;;;;;;4.60;4.20;;;;;;;31.17;29.78;97117.41;5091484;28;20445;-72
2023/06/10 10:57:43;;;;;;;4.87;4.30;;;;;;;31.03;30.11;97117.28;5096787;28;20540;-71
2023/06/10 11:00:09;;;;;;;4.80;4.40;;;;;;;30.97;30.28;97111.13;5096099;28;20202;-70
2023/06/10 11:02:38;;;;;;;4.83;4.37;;;;;;;30.92;30.86;97111.16;5074574;28;20780;-70
2023/06/10 11:05:04;;;;;;;4.80;4.40;;;;;;;30.89;30.49;97111.72;5096651;28;20476;-70
2023/06/10 11:07:31;;;;;;;4.90;4.50;;;;;;;30.83;31.32;97112.91;5064430;28;20417;-71
2023/06/10 11:09:59;;;;;;;6.23;4.20;;;;;;;30.89;30.77;97109.84;5089674;28;20451;-71
2023/06/10 11:12:25;;;;;;;6.50;3.77;;;;;;;30.95;31.00;97116.00;5087784;28;20816;-71
2023/06/10 11:14:55;;;;;;;5.93;4.20;;;;;;;30.93;30.66;97110.06;5091420;28;20431;-71
2023/06/10 11:17:21;;;;;;;4.00;3.70;;;;;;;30.97;30.58;97104.88;5091356;28;20304;-70
2023/06/10 11:19:46;;;;;;;4.40;4.00;;;;;;;31.00;29.98;97102.41;5090880;28;20408;-70
2023/06/10 11:22:17;;;;;;;28.77;8.43;;;;;;;31.25;30.49;97103.25;5090839;28;20198;-70
2023/06/10 11:24:47;;;;;;;13.17;6.00;;;;;;;31.56;30.06;97100.13;5090479;28;20255;-70
2023/06/10 11:27:19;;;;;;;6.80;4.50;;;;;;;31.91;29.88;97105.38;5090817;28;20443;-70
2023/06/10 11:30:00;;;;;;;7.70;5.10;;;;;;;32.08;28.76;97100.22;5090347;28;22388;-71